| time (UTC) | temp F | wind direction | speed MPH | gust MPH | rain 1hr in | rain 24hr in | rain mn in | humidity % | barometer mb |
| 20260902221519 | 92 | 231 | 6.0 | 12.0 | 0.00 | 0.00 | 0.00 | 45 | 1015.1 |
| 20260902221019 | 92 | 215 | 7.0 | 14.0 | 0.00 | 0.00 | 0.00 | 44 | 1015.1 |
| 20260902220519 | 92 | 221 | 6.0 | 12.0 | 0.00 | 0.00 | 0.00 | 45 | 1015.1 |
| 20260902220018 | 92 | 215 | 6.0 | 13.0 | 0.00 | 0.00 | 0.00 | 46 | 1015.2 |
| 20260902215518 | 92 | 197 | 7.0 | 14.0 | 0.00 | 0.00 | 0.00 | 45 | 1015.1 |
| 20260902215019 | 92 | 228 | 6.0 | 11.0 | 0.00 | 0.00 | 0.00 | 44 | 1015.1 |
| 20260902214518 | 93 | 236 | 4.0 | 7.0 | 0.00 | 0.00 | 0.00 | 46 | 1015.2 |
| 20260902214017 | 93 | 229 | 7.0 | 12.0 | 0.00 | 0.00 | 0.00 | 46 | 1015.2 |
| 20260902213517 | 93 | 229 | 6.0 | 11.0 | 0.00 | 0.00 | 0.00 | 44 | 1015.2 |
| 20260902213017 | 93 | 229 | 6.0 | 10.0 | 0.00 | 0.00 | 0.00 | 46 | 1015.2 |
| 20260902212518 | 92 | 229 | 9.0 | 17.0 | 0.00 | 0.00 | 0.00 | 45 | 1015.2 |
| 20260902212017 | 93 | 224 | 8.0 | 13.0 | 0.00 | 0.00 | 0.00 | 45 | 1015.3 |
| 20260902211516 | 93 | 228 | 6.0 | 13.0 | 0.00 | 0.00 | 0.00 | 45 | 1015.3 |
| 20260902211016 | 93 | 221 | 6.0 | 10.0 | 0.00 | 0.00 | 0.00 | 44 | 1015.3 |
| 20260902210517 | 93 | 290 | 5.0 | 10.0 | 0.00 | 0.00 | 0.00 | 43 | 1015.4 |
| 20260902210016 | 93 | 221 | 4.0 | 9.0 | 0.00 | 0.00 | 0.00 | 46 | 1015.4 |
| 20260902205515 | 93 | 221 | 5.0 | 11.0 | 0.00 | 0.00 | 0.00 | 45 | 1015.5 |
| 20260902205016 | 94 | 224 | 7.0 | 12.0 | 0.00 | 0.00 | 0.00 | 44 | 1015.4 |
| 20260902204515 | 94 | 221 | 6.0 | 10.0 | 0.00 | 0.00 | 0.00 | 45 | 1015.5 |
| 20260902204016 | 93 | 253 | 5.0 | 10.0 | 0.00 | 0.00 | 0.00 | 42 | 1015.5 |
| 20260902203514 | 94 | 218 | 5.0 | 12.0 | 0.00 | 0.00 | 0.00 | 42 | 1015.5 |
| 20260902203014 | 95 | 222 | 4.0 | 11.0 | 0.00 | 0.00 | 0.00 | 44 | 1015.6 |
| 20260902202514 | 95 | 231 | 5.0 | 11.0 | 0.00 | 0.00 | 0.00 | 44 | 1015.6 |
| 20260902202014 | 94 | 257 | 4.0 | 8.0 | 0.00 | 0.00 | 0.00 | 43 | 1015.6 |
| 20260902201513 | 94 | 224 | 5.0 | 11.0 | 0.00 | 0.00 | 0.00 | 43 | 1015.6 |
| 20260902201013 | 93 | 231 | 6.0 | 12.0 | 0.00 | 0.00 | 0.00 | 43 | 1015.6 |
| 20260902200513 | 94 | 224 | 7.0 | 12.0 | 0.00 | 0.00 | 0.00 | 40 | 1015.7 |
| 20260902200013 | 94 | 222 | 5.0 | 9.0 | 0.00 | 0.00 | 0.00 | 44 | 1015.7 |
| 20260902195513 | 94 | 224 | 6.0 | 12.0 | 0.00 | 0.00 | 0.00 | 43 | 1015.8 |
| 20260902195012 | 94 | 212 | 7.0 | 15.0 | 0.00 | 0.00 | 0.00 | 42 | 1015.8 |
| 20260902194513 | 94 | 218 | 6.0 | 11.0 | 0.00 | 0.00 | 0.00 | 40 | 1015.9 |
| 20260902194012 | 95 | 217 | 3.0 | 11.0 | 0.00 | 0.00 | 0.00 | 44 | 1015.9 |
| 20260902193511 | 95 | 278 | 4.0 | 10.0 | 0.00 | 0.00 | 0.00 | 42 | 1016.0 |
| 20260902193011 | 94 | 215 | 6.0 | 10.0 | 0.00 | 0.00 | 0.00 | 42 | 1016.1 |
| 20260902192511 | 93 | 200 | 6.0 | 11.0 | 0.00 | 0.00 | 0.00 | 42 | 1016.2 |
| 20260902192011 | 94 | 252 | 3.0 | 8.0 | 0.00 | 0.00 | 0.00 | 42 | 1016.2 |
| 20260902191511 | 94 | 300 | 6.0 | 10.0 | 0.00 | 0.00 | 0.00 | 43 | 1016.3 |
| 20260902191010 | 94 | 207 | 5.0 | 13.0 | 0.00 | 0.00 | 0.00 | 43 | 1016.3 |
| 20260902190510 | 93 | 235 | 7.0 | 12.0 | 0.00 | 0.00 | 0.00 | 44 | 1016.4 |
| 20260902190009 | 94 | 214 | 6.0 | 11.0 | 0.00 | 0.00 | 0.00 | 43 | 1016.4 |
| 20260902185509 | 94 | 235 | 5.0 | 11.0 | 0.00 | 0.00 | 0.00 | 41 | 1016.4 |
| 20260902185009 | 94 | 222 | 6.0 | 12.0 | 0.00 | 0.00 | 0.00 | 42 | 1016.4 |
| 20260902184508 | 93 | 235 | 7.0 | 14.0 | 0.00 | 0.00 | 0.00 | 45 | 1016.5 |
| 20260902184009 | 93 | 218 | 7.0 | 11.0 | 0.00 | 0.00 | 0.00 | 45 | 1016.6 |
| 20260902183508 | 94 | 208 | 6.0 | 12.0 | 0.00 | 0.00 | 0.00 | 47 | 1016.6 |
| 20260902183007 | 93 | 255 | 4.0 | 8.0 | 0.00 | 0.00 | 0.00 | 44 | 1016.5 |
| 20260902182509 | 93 | 321 | 4.0 | 9.0 | 0.00 | 0.00 | 0.00 | 44 | 1016.6 |
| 20260902182008 | 93 | 219 | 5.0 | 12.0 | 0.00 | 0.00 | 0.00 | 47 | 1016.6 |
| 20260902181507 | 92 | 219 | 5.0 | 11.0 | 0.00 | 0.00 | 0.00 | 48 | 1016.7 |
| 20260902181006 | 91 | 231 | 4.0 | 10.0 | 0.00 | 0.00 | 0.00 | 47 | 1016.8 |
| 20260902180506 | 93 | 232 | 6.0 | 11.0 | 0.00 | 0.00 | 0.00 | 45 | 1016.8 |
| 20260902180007 | 92 | 214 | 6.0 | 12.0 | 0.00 | 0.00 | 0.00 | 46 | 1016.8 |
| 20260902175007 | 92 | 217 | 7.0 | 13.0 | 0.00 | 0.00 | 0.00 | 48 | 1017.0 |
| 20260902174505 | 92 | 218 | 7.0 | 12.0 | 0.00 | 0.00 | 0.00 | 50 | 1017.0 |
| 20260902174005 | 93 | 231 | 7.0 | 11.0 | 0.00 | 0.00 | 0.00 | 48 | 1017.1 |
| 20260902173505 | 91 | 229 | 7.0 | 11.0 | 0.00 | 0.00 | 0.00 | 49 | 1017.2 |
| 20260902173006 | 91 | 215 | 7.0 | 13.0 | 0.00 | 0.00 | 0.00 | 49 | 1017.2 |
| 20260902172502 | 92 | 245 | 5.0 | 11.0 | 0.00 | 0.00 | 0.00 | 50 | 1017.3 |
| 20260902172004 | 92 | 243 | 5.0 | 11.0 | 0.00 | 0.00 | 0.00 | 50 | 1017.3 |
| 20260902171502 | 92 | 250 | 5.0 | 10.0 | 0.00 | 0.00 | 0.00 | 48 | 1017.3 |
| 20260902171003 | 92 | 232 | 3.0 | 8.0 | 0.00 | 0.00 | 0.00 | 52 | 1017.3 |
| 20260902170501 | 91 | 233 | 4.0 | 8.0 | 0.00 | 0.00 | 0.00 | 51 | 1017.3 |
| 20260902170001 | 91 | 228 | 5.0 | 9.0 | 0.00 | 0.00 | 0.00 | 52 | 1017.3 |
| 20260902165501 | 91 | 219 | 7.0 | 13.0 | 0.00 | 0.00 | 0.00 | 51 | 1017.4 |
| 20260902165002 | 91 | 231 | 3.0 | 10.0 | 0.00 | 0.00 | 0.00 | 51 | 1017.4 |
| 20260902164500 | 91 | 222 | 4.0 | 11.0 | 0.00 | 0.00 | 0.00 | 51 | 1017.4 |
| 20260902164000 | 91 | 231 | 4.0 | 7.0 | 0.00 | 0.00 | 0.00 | 51 | 1017.4 |
| 20260902163500 | 91 | 248 | 4.0 | 8.0 | 0.00 | 0.00 | 0.00 | 51 | 1017.5 |
| 20260902163000 | 91 | 305 | 4.0 | 8.0 | 0.00 | 0.00 | 0.00 | 52 | 1017.5 |
| 20260902162500 | 90 | 219 | 5.0 | 9.0 | 0.00 | 0.00 | 0.00 | 53 | 1017.5 |
| 20260902161959 | 90 | 257 | 5.0 | 7.0 | 0.00 | 0.00 | 0.00 | 54 | 1017.4 |
| 20260902161459 | 90 | 231 | 3.0 | 6.0 | 0.00 | 0.00 | 0.00 | 55 | 1017.5 |
| 20260902160959 | 90 | 231 | 4.0 | 9.0 | 0.00 | 0.00 | 0.00 | 55 | 1017.5 |
| 20260902160459 | 89 | 312 | 4.0 | 8.0 | 0.00 | 0.00 | 0.00 | 56 | 1017.6 |
| 20260902155958 | 89 | 219 | 4.0 | 9.0 | 0.00 | 0.00 | 0.00 | 58 | 1017.6 |
| 20260902155458 | 88 | 236 | 5.0 | 8.0 | 0.00 | 0.00 | 0.00 | 56 | 1017.6 |
| 20260902154958 | 88 | 225 | 5.0 | 11.0 | 0.00 | 0.00 | 0.00 | 56 | 1017.6 |
| 20260902154458 | 89 | 316 | 3.0 | 6.0 | 0.00 | 0.00 | 0.00 | 58 | 1017.7 |
| 20260902153958 | 88 | 235 | 3.0 | 6.0 | 0.00 | 0.00 | 0.00 | 58 | 1017.7 |
| 20260902153458 | 88 | 235 | 5.0 | 8.0 | 0.00 | 0.00 | 0.00 | 60 | 1017.7 |
| 20260902152955 | 88 | 290 | 3.0 | 6.0 | 0.00 | 0.00 | 0.00 | 59 | 1017.7 |
| 20260902151955 | 88 | 281 | 3.0 | 6.0 | 0.00 | 0.00 | 0.00 | 60 | 1017.7 |
| 20260902151456 | 87 | 340 | 2.0 | 5.0 | 0.00 | 0.00 | 0.00 | 60 | 1017.8 |
| 20260902150954 | 87 | 297 | 3.0 | 7.0 | 0.00 | 0.00 | 0.00 | 60 | 1017.8 |
| 20260902145954 | 86 | 248 | 3.0 | 7.0 | 0.00 | 0.00 | 0.00 | 61 | 1017.8 |
| 20260902145454 | 86 | 259 | 2.0 | 4.0 | 0.00 | 0.00 | 0.00 | 63 | 1017.8 |
| 20260902144954 | 85 | 218 | 4.0 | 10.0 | 0.00 | 0.00 | 0.00 | 63 | 1017.8 |
| 20260902143953 | 85 | 231 | 5.0 | 10.0 | 0.00 | 0.00 | 0.00 | 64 | 1017.7 |
| 20260902143453 | 84 | 224 | 5.0 | 9.0 | 0.00 | 0.00 | 0.00 | 64 | 1017.8 |
| 20260902142953 | 84 | 217 | 5.0 | 9.0 | 0.00 | 0.00 | 0.00 | 63 | 1017.7 |
| 20260902142453 | 84 | 228 | 5.0 | 10.0 | 0.00 | 0.00 | 0.00 | 66 | 1017.8 |
| 20260902141952 | 84 | 246 | 4.0 | 8.0 | 0.00 | 0.00 | 0.00 | 66 | 1017.7 |
| 20260902141453 | 83 | 231 | 4.0 | 10.0 | 0.00 | 0.00 | 0.00 | 66 | 1017.7 |
| 20260902140952 | 83 | 228 | 4.0 | 8.0 | 0.00 | 0.00 | 0.00 | 67 | 1017.7 |
| 20260902140451 | 82 | 221 | 6.0 | 10.0 | 0.00 | 0.00 | 0.00 | 66 | 1017.7 |
| 20260902135952 | 83 | 232 | 4.0 | 9.0 | 0.00 | 0.00 | 0.00 | 66 | 1017.7 |
| 20260902135451 | 82 | 232 | 3.0 | 7.0 | 0.00 | 0.00 | 0.00 | 68 | 1017.7 |
| 20260902134951 | 82 | 233 | 4.0 | 8.0 | 0.00 | 0.00 | 0.00 | 68 | 1017.8 |
| 20260902134451 | 82 | 256 | 3.0 | 8.0 | 0.00 | 0.00 | 0.00 | 69 | 1017.7 |
| 20260902133951 | 81 | 231 | 4.0 | 9.0 | 0.00 | 0.00 | 0.00 | 70 | 1017.7 |
| 20260902133036 | 81 | 238 | 1.0 | 4.0 | 0.00 | 0.00 | 0.00 | 73 | 1017.7 |
| 20260902132949 | 81 | 238 | 1.0 | 4.0 | 0.00 | 0.00 | 0.00 | 73 | 1017.7 |
| 20260902132449 | 80 | 239 | 2.0 | 5.0 | 0.00 | 0.00 | 0.00 | 74 | 1017.7 |
| 20260902131949 | 80 | 208 | 2.0 | 6.0 | 0.00 | 0.00 | 0.00 | 71 | 1017.7 |
| 20260902131449 | 80 | 215 | 1.0 | 5.0 | 0.00 | 0.00 | 0.00 | 74 | 1017.7 |
| 20260902130949 | 79 | 233 | 0.0 | 2.0 | 0.00 | 0.00 | 0.00 | 76 | 1017.7 |
| 20260902130447 | 79 | 186 | 0.0 | 1.0 | 0.00 | 0.00 | 0.00 | 76 | 1017.8 |
| 20260902125948 | 78 | 187 | 0.0 | 3.0 | 0.00 | 0.00 | 0.00 | 76 | 1017.7 |
| 20260902125448 | 78 | 0 | 0.0 | 0.0 | 0.00 | 0.00 | 0.00 | 77 | 1017.7 |
| 20260902124947 | 78 | 0 | 0.0 | 0.0 | 0.00 | 0.00 | 0.00 | 79 | 1017.7 |
| 20260902124448 | 77 | 162 | 0.0 | 1.0 | 0.00 | 0.00 | 0.00 | 80 | 1017.7 |
| 20260902123946 | 77 | 0 | 0.0 | 0.0 | 0.00 | 0.00 | 0.00 | 82 | 1017.6 |
| 20260902123446 | 76 | 0 | 0.0 | 0.0 | 0.00 | 0.00 | 0.00 | 83 | 1017.6 |
| 20260902122946 | 76 | 0 | 0.0 | 0.0 | 0.00 | 0.00 | 0.00 | 85 | 1017.6 |
| 20260902122447 | 75 | 0 | 0.0 | 0.0 | 0.00 | 0.00 | 0.00 | 87 | 1017.5 |
| 20260902121945 | 75 | 0 | 0.0 | 0.0 | 0.00 | 0.00 | 0.00 | 87 | 1017.5 |
| 20260902121445 | 74 | 0 | 0.0 | 0.0 | 0.00 | 0.00 | 0.00 | 88 | 1017.5 |
| 20260902120945 | 74 | 0 | 0.0 | 0.0 | 0.00 | 0.00 | 0.00 | 89 | 1017.5 |
| 20260902120445 | 73 | 0 | 0.0 | 0.0 | 0.00 | 0.00 | 0.00 | 89 | 1017.5 |
| 20260902115944 | 73 | 0 | 0.0 | 0.0 | 0.00 | 0.00 | 0.00 | 89 | 1017.4 |
| 20260902115444 | 73 | 0 | 0.0 | 0.0 | 0.00 | 0.00 | 0.00 | 89 | 1017.4 |
| 20260902114944 | 73 | 0 | 0.0 | 0.0 | 0.00 | 0.00 | 0.00 | 89 | 1017.4 |
| 20260902114443 | 72 | 0 | 0.0 | 0.0 | 0.00 | 0.00 | 0.00 | 89 | 1017.2 |
| 20260902113942 | 72 | 0 | 0.0 | 0.0 | 0.00 | 0.00 | 0.00 | 89 | 1017.1 |
| 20260902113442 | 72 | 0 | 0.0 | 0.0 | 0.00 | 0.00 | 0.00 | 89 | 1017.1 |
| 20260902112941 | 72 | 0 | 0.0 | 0.0 | 0.00 | 0.00 | 0.00 | 89 | 1017.0 |
| 20260902112441 | 72 | 0 | 0.0 | 0.0 | 0.00 | 0.00 | 0.00 | 89 | 1017.0 |
| 20260902111939 | 72 | 0 | 0.0 | 0.0 | 0.00 | 0.00 | 0.00 | 89 | 1017.0 |
| 20260902111439 | 72 | 0 | 0.0 | 0.0 | 0.00 | 0.00 | 0.00 | 89 | 1017.0 |
| 20260902110939 | 72 | 0 | 0.0 | 0.0 | 0.00 | 0.00 | 0.00 | 89 | 1017.0 |
| 20260902110439 | 72 | 0 | 0.0 | 0.0 | 0.00 | 0.00 | 0.00 | 89 | 1016.9 |
| 20260902105938 | 72 | 0 | 0.0 | 0.0 | 0.00 | 0.00 | 0.00 | 89 | 1017.0 |
| 20260902105519 | 72 | 0 | 0.0 | 0.0 | 0.00 | 0.00 | 0.00 | 89 | 1017.0 |
| 20260902105438 | 72 | 0 | 0.0 | 0.0 | 0.00 | 0.00 | 0.00 | 89 | 1017.0 |
| 20260902104939 | 73 | 0 | 0.0 | 0.0 | 0.00 | 0.00 | 0.00 | 89 | 1017.1 |
| 20260902104436 | 73 | 0 | 0.0 | 0.0 | 0.00 | 0.00 | 0.00 | 89 | 1017.1 |
| 20260902103935 | 73 | 150 | 0.0 | 3.0 | 0.00 | 0.00 | 0.00 | 89 | 1017.1 |
| 20260902103436 | 72 | 141 | 0.0 | 1.0 | 0.00 | 0.00 | 0.00 | 89 | 1017.1 |
| 20260902102936 | 72 | 0 | 0.0 | 0.0 | 0.00 | 0.00 | 0.00 | 89 | 1017.0 |
| 20260902102436 | 72 | 0 | 0.0 | 0.0 | 0.00 | 0.00 | 0.00 | 89 | 1017.0 |
| 20260902101936 | 72 | 0 | 0.0 | 0.0 | 0.00 | 0.00 | 0.00 | 89 | 1017.0 |
| 20260902101434 | 72 | 0 | 0.0 | 0.0 | 0.00 | 0.00 | 0.00 | 89 | 1017.1 |
| 20260902100935 | 72 | 0 | 0.0 | 0.0 | 0.00 | 0.00 | 0.00 | 89 | 1017.0 |
| 20260902100435 | 72 | 0 | 0.0 | 0.0 | 0.00 | 0.00 | 0.00 | 89 | 1016.9 |
| 20260902095934 | 72 | 0 | 0.0 | 0.0 | 0.00 | 0.00 | 0.00 | 89 | 1016.9 |
| 20260902095433 | 72 | 0 | 0.0 | 0.0 | 0.00 | 0.00 | 0.00 | 89 | 1016.9 |
| 20260902094926 | 72 | 0 | 0.0 | 0.0 | 0.00 | 0.00 | 0.00 | 89 | 1016.9 |
| 20260902094426 | 72 | 0 | 0.0 | 0.0 | 0.00 | 0.00 | 0.00 | 89 | 1016.9 |
| 20260902093926 | 72 | 0 | 0.0 | 0.0 | 0.00 | 0.00 | 0.00 | 89 | 1016.9 |
| 20260902093426 | 72 | 0 | 0.0 | 0.0 | 0.00 | 0.00 | 0.00 | 89 | 1016.9 |
| 20260902092925 | 72 | 0 | 0.0 | 0.0 | 0.00 | 0.00 | 0.00 | 89 | 1016.8 |
| 20260902092423 | 72 | 0 | 0.0 | 0.0 | 0.00 | 0.00 | 0.00 | 89 | 1016.9 |
| 20260902091923 | 72 | 0 | 0.0 | 0.0 | 0.00 | 0.00 | 0.00 | 89 | 1016.9 |
| 20260902091423 | 72 | 0 | 0.0 | 0.0 | 0.00 | 0.00 | 0.00 | 89 | 1016.8 |
| 20260902090922 | 72 | 333 | 0.0 | 1.0 | 0.00 | 0.00 | 0.00 | 89 | 1016.8 |
| 20260902085922 | 72 | 0 | 0.0 | 0.0 | 0.00 | 0.00 | 0.00 | 89 | 1016.7 |
| 20260902085455 | 72 | 0 | 0.0 | 0.0 | 0.00 | 0.00 | 0.00 | 89 | 1016.6 |
| 20260902085422 | 72 | 0 | 0.0 | 0.0 | 0.00 | 0.00 | 0.00 | 89 | 1016.6 |
| 20260902084921 | 72 | 39 | 0.0 | 2.0 | 0.00 | 0.00 | 0.00 | 89 | 1016.6 |
| 20260902084421 | 72 | 13 | 1.0 | 2.0 | 0.00 | 0.00 | 0.00 | 89 | 1016.5 |
| 20260902083921 | 72 | 27 | 2.0 | 2.0 | 0.00 | 0.00 | 0.00 | 89 | 1016.4 |
| 20260902083422 | 72 | 13 | 1.0 | 2.0 | 0.00 | 0.00 | 0.00 | 89 | 1016.4 |
| 20260902082921 | 72 | 18 | 1.0 | 2.0 | 0.00 | 0.00 | 0.00 | 89 | 1016.5 |
| 20260902082420 | 72 | 14 | 1.0 | 2.0 | 0.00 | 0.00 | 0.00 | 88 | 1016.4 |
| 20260902081920 | 72 | 0 | 0.0 | 0.0 | 0.00 | 0.00 | 0.00 | 88 | 1016.4 |
| 20260902081420 | 72 | 4 | 0.0 | 1.0 | 0.00 | 0.00 | 0.00 | 88 | 1016.3 |
| 20260902080920 | 72 | 15 | 1.0 | 2.0 | 0.00 | 0.00 | 0.00 | 88 | 1016.3 |
| 20260902080418 | 73 | 17 | 1.0 | 2.0 | 0.00 | 0.00 | 0.00 | 88 | 1016.3 |
| 20260902075918 | 73 | 0 | 0.0 | 0.0 | 0.00 | 0.00 | 0.00 | 88 | 1016.2 |
| 20260902075418 | 73 | 0 | 0.0 | 0.0 | 0.00 | 0.00 | 0.00 | 88 | 1016.3 |
| 20260902074917 | 73 | 0 | 0.0 | 0.0 | 0.00 | 0.00 | 0.00 | 87 | 1016.3 |
| 20260902074417 | 73 | 0 | 0.0 | 0.0 | 0.00 | 0.00 | 0.00 | 88 | 1016.2 |
| 20260902073917 | 73 | 0 | 0.0 | 0.0 | 0.00 | 0.00 | 0.00 | 88 | 1016.2 |
| 20260902073417 | 73 | 0 | 0.0 | 0.0 | 0.00 | 0.00 | 0.00 | 88 | 1016.3 |
| 20260902072917 | 73 | 0 | 0.0 | 0.0 | 0.00 | 0.00 | 0.00 | 88 | 1016.3 |
| 20260902072415 | 73 | 0 | 0.0 | 0.0 | 0.00 | 0.00 | 0.00 | 88 | 1016.2 |
| 20260902071915 | 73 | 0 | 0.0 | 0.0 | 0.00 | 0.00 | 0.00 | 88 | 1016.2 |
| 20260902071415 | 73 | 0 | 0.0 | 0.0 | 0.00 | 0.00 | 0.00 | 88 | 1016.2 |
| 20260902070915 | 73 | 0 | 0.0 | 0.0 | 0.00 | 0.00 | 0.00 | 88 | 1016.2 |
| 20260902070414 | 73 | 21 | 0.0 | 1.0 | 0.00 | 0.00 | 0.00 | 88 | 1016.2 |
| 20260902065914 | 73 | 23 | 0.0 | 1.0 | 0.00 | 0.00 | 0.00 | 88 | 1016.3 |
| 20260902065414 | 73 | 23 | 0.0 | 1.0 | 0.00 | 0.00 | 0.00 | 88 | 1016.2 |
| 20260902064913 | 73 | 0 | 0.0 | 0.0 | 0.00 | 0.00 | 0.00 | 87 | 1016.2 |
| 20260902064413 | 73 | 0 | 0.0 | 0.0 | 0.00 | 0.00 | 0.00 | 87 | 1016.3 |
| 20260902063912 | 73 | 32 | 0.0 | 1.0 | 0.00 | 0.00 | 0.00 | 87 | 1016.2 |
| 20260902063412 | 73 | 30 | 0.0 | 1.0 | 0.00 | 0.00 | 0.00 | 87 | 1016.2 |
| 20260902062912 | 73 | 0 | 0.0 | 0.0 | 0.00 | 0.00 | 0.00 | 87 | 1016.3 |
| 20260902062410 | 73 | 0 | 0.0 | 0.0 | 0.00 | 0.00 | 0.00 | 87 | 1016.3 |
| 20260902061910 | 73 | 17 | 0.0 | 0.0 | 0.00 | 0.00 | 0.00 | 87 | 1016.3 |
| 20260902061410 | 73 | 20 | 1.0 | 1.0 | 0.00 | 0.00 | 0.00 | 87 | 1016.4 |
| 20260902060910 | 73 | 23 | 2.0 | 2.0 | 0.00 | 0.00 | 0.00 | 86 | 1016.3 |
| 20260902060410 | 74 | 24 | 1.0 | 2.0 | 0.00 | 0.00 | 0.00 | 86 | 1016.3 |
| 20260902055909 | 74 | 18 | 1.0 | 2.0 | 0.00 | 0.00 | 0.00 | 86 | 1016.3 |
| 20260902055409 | 74 | 25 | 1.0 | 2.0 | 0.00 | 0.00 | 0.00 | 86 | 1016.3 |
| 20260902054909 | 74 | 28 | 1.0 | 2.0 | 0.00 | 0.00 | 0.00 | 86 | 1016.3 |
| 20260902054409 | 74 | 21 | 2.0 | 2.0 | 0.00 | 0.00 | 0.00 | 86 | 1016.3 |
| 20260902053907 | 74 | 23 | 1.0 | 2.0 | 0.00 | 0.00 | 0.00 | 86 | 1016.4 |
| 20260902053407 | 74 | 31 | 2.0 | 2.0 | 0.00 | 0.00 | 0.00 | 86 | 1016.4 |
| 20260902052907 | 74 | 31 | 2.0 | 2.0 | 0.00 | 0.00 | 0.00 | 86 | 1016.4 |
| 20260902052406 | 74 | 21 | 2.0 | 2.0 | 0.00 | 0.00 | 0.00 | 86 | 1016.4 |
| 20260902051904 | 74 | 14 | 2.0 | 2.0 | 0.00 | 0.00 | 0.00 | 85 | 1016.3 |
| 20260902051404 | 74 | 13 | 2.0 | 2.0 | 0.00 | 0.00 | 0.00 | 85 | 1016.3 |
| 20260902050904 | 74 | 35 | 1.0 | 2.0 | 0.00 | 0.00 | 0.00 | 85 | 1016.3 |
| 20260902045903 | 74 | 18 | 2.0 | 2.0 | 0.00 | 0.00 | 0.00 | 84 | 1016.2 |
| 20260902045403 | 75 | 7 | 2.0 | 2.0 | 0.00 | 0.00 | 0.00 | 84 | 1016.3 |
| 20260902044903 | 75 | 1 | 2.0 | 3.0 | 0.00 | 0.00 | 0.00 | 84 | 1016.3 |
| 20260902043902 | 75 | 0 | 0.0 | 0.0 | 0.00 | 0.00 | 0.00 | 84 | 1016.3 |
| 20260902043402 | 75 | 0 | 0.0 | 0.0 | 0.00 | 0.00 | 0.00 | 84 | 1016.3 |
| 20260902042942 | 75 | 0 | 0.0 | 0.0 | 0.00 | 0.00 | 0.00 | 84 | 1016.3 |
| 20260902042902 | 75 | 0 | 0.0 | 0.0 | 0.00 | 0.00 | 0.00 | 84 | 1016.3 |
| 20260902042402 | 75 | 0 | 0.0 | 0.0 | 0.00 | 0.00 | 0.00 | 84 | 1016.4 |
| 20260902041859 | 75 | 0 | 0.0 | 0.0 | 0.00 | 0.00 | 0.00 | 83 | 1016.4 |
| 20260902041359 | 75 | 340 | 0.0 | 1.0 | 0.00 | 0.00 | 0.00 | 83 | 1016.4 |
| 20260902040859 | 75 | 0 | 0.0 | 0.0 | 0.00 | 0.00 | 0.00 | 83 | 1016.4 |
| 20260902040358 | 75 | 0 | 0.0 | 0.0 | 0.00 | 0.00 | 0.00 | 83 | 1016.4 |
| 20260902035856 | 75 | 0 | 0.0 | 0.0 | 0.00 | 0.00 | 0.00 | 83 | 1016.4 |
| 20260902035353 | 75 | 0 | 0.0 | 0.0 | 0.00 | 0.00 | 0.00 | 83 | 1016.4 |
| 20260902034352 | 75 | 0 | 0.0 | 0.0 | 0.00 | 0.00 | 0.00 | 82 | 1016.4 |
| 20260902033852 | 76 | 0 | 0.0 | 0.0 | 0.00 | 0.00 | 0.00 | 82 | 1016.4 |
| 20260902033352 | 76 | 0 | 0.0 | 0.0 | 0.00 | 0.00 | 0.00 | 82 | 1016.4 |
| 20260902032852 | 76 | 0 | 0.0 | 0.0 | 0.00 | 0.00 | 0.00 | 81 | 1016.3 |
| 20260902032351 | 76 | 0 | 0.0 | 0.0 | 0.00 | 0.00 | 0.00 | 81 | 1016.3 |
| 20260902031851 | 76 | 215 | 0.0 | 0.0 | 0.00 | 0.00 | 0.00 | 80 | 1016.3 |
| 20260902031351 | 76 | 0 | 0.0 | 0.0 | 0.00 | 0.00 | 0.00 | 80 | 1016.3 |
| 20260902030850 | 76 | 0 | 0.0 | 0.0 | 0.00 | 0.00 | 0.00 | 79 | 1016.3 |
| 20260902030350 | 76 | 0 | 0.0 | 0.0 | 0.00 | 0.00 | 0.00 | 79 | 1016.3 |
| 20260902025851 | 77 | 0 | 0.0 | 0.0 | 0.00 | 0.00 | 0.00 | 80 | 1016.3 |
| 20260902025350 | 76 | 13 | 0.0 | 1.0 | 0.00 | 0.00 | 0.00 | 80 | 1016.3 |
| 20260902024849 | 76 | 0 | 0.0 | 0.0 | 0.00 | 0.00 | 0.00 | 81 | 1016.2 |
| 20260902024349 | 76 | 0 | 0.0 | 0.0 | 0.00 | 0.00 | 0.00 | 81 | 1016.2 |
| 20260902023849 | 76 | 0 | 0.0 | 0.0 | 0.00 | 0.00 | 0.00 | 81 | 1016.3 |
| 20260902023349 | 76 | 0 | 0.0 | 0.0 | 0.00 | 0.00 | 0.00 | 81 | 1016.3 |
| 20260902022848 | 76 | 0 | 0.0 | 0.0 | 0.00 | 0.00 | 0.00 | 81 | 1016.3 |
| 20260902022348 | 76 | 0 | 0.0 | 0.0 | 0.00 | 0.00 | 0.00 | 81 | 1016.3 |
| 20260902021848 | 76 | 0 | 0.0 | 0.0 | 0.00 | 0.00 | 0.00 | 81 | 1016.3 |
| 20260902021348 | 77 | 0 | 0.0 | 0.0 | 0.00 | 0.00 | 0.00 | 81 | 1016.3 |
| 20260902020847 | 77 | 0 | 0.0 | 0.0 | 0.00 | 0.00 | 0.00 | 80 | 1016.3 |
| 20260902020504 | 77 | 6 | 0.0 | 2.0 | 0.00 | 0.00 | 0.00 | 79 | 1016.2 |
| 20260902020347 | 77 | 6 | 0.0 | 2.0 | 0.00 | 0.00 | 0.00 | 79 | 1016.2 |
| 20260902015847 | 77 | 0 | 0.0 | 0.0 | 0.00 | 0.00 | 0.00 | 79 | 1016.1 |
| 20260902015347 | 77 | 0 | 0.0 | 0.0 | 0.00 | 0.00 | 0.00 | 78 | 1016.1 |
| 20260902014847 | 78 | 0 | 0.0 | 0.0 | 0.00 | 0.00 | 0.00 | 77 | 1016.1 |
| 20260902014346 | 78 | 0 | 0.0 | 0.0 | 0.00 | 0.00 | 0.00 | 76 | 1016.1 |
| 20260902013846 | 78 | 0 | 0.0 | 0.0 | 0.00 | 0.00 | 0.00 | 75 | 1016.1 |
| 20260902013346 | 78 | 354 | 0.0 | 2.0 | 0.00 | 0.00 | 0.00 | 74 | 1016.0 |
| 20260902012846 | 78 | 7 | 0.0 | 2.0 | 0.00 | 0.00 | 0.00 | 74 | 1015.9 |
| 20260902012345 | 79 | 14 | 1.0 | 2.0 | 0.00 | 0.00 | 0.00 | 74 | 1015.8 |
| 20260902011845 | 79 | 0 | 0.0 | 0.0 | 0.00 | 0.00 | 0.00 | 73 | 1015.8 |
| 20260902011345 | 80 | 148 | 0.0 | 0.0 | 0.00 | 0.00 | 0.00 | 73 | 1015.8 |
| 20260902010846 | 80 | 0 | 0.0 | 0.0 | 0.00 | 0.00 | 0.00 | 71 | 1015.8 |
| 20260902010344 | 80 | 0 | 0.0 | 0.0 | 0.00 | 0.00 | 0.00 | 72 | 1015.7 |
| 20260902005844 | 80 | 0 | 0.0 | 0.0 | 0.00 | 0.00 | 0.00 | 72 | 1015.7 |
| 20260902005344 | 81 | 0 | 0.0 | 0.0 | 0.00 | 0.00 | 0.00 | 71 | 1015.7 |
| 20260902004844 | 81 | 0 | 0.0 | 0.0 | 0.00 | 0.00 | 0.00 | 69 | 1015.7 |
| 20260902004343 | 82 | 0 | 0.0 | 0.0 | 0.00 | 0.00 | 0.00 | 67 | 1015.7 |
| 20260902003843 | 83 | 0 | 0.0 | 0.0 | 0.00 | 0.00 | 0.00 | 65 | 1015.7 |
| 20260902003343 | 84 | 0 | 0.0 | 0.0 | 0.00 | 0.00 | 0.00 | 63 | 1015.7 |
| 20260902002843 | 85 | 0 | 0.0 | 0.0 | 0.00 | 0.00 | 0.00 | 60 | 1015.6 |
| 20260902002343 | 86 | 229 | 0.0 | 1.0 | 0.00 | 0.00 | 0.00 | 57 | 1015.7 |
| 20260902001842 | 87 | 222 | 1.0 | 3.0 | 0.00 | 0.00 | 0.00 | 52 | 1015.8 |
| 20260902001342 | 87 | 212 | 1.0 | 4.0 | 0.00 | 0.00 | 0.00 | 50 | 1015.8 |
| 20260902000842 | 88 | 221 | 2.0 | 5.0 | 0.00 | 0.00 | 0.00 | 50 | 1015.8 |
| 20260902000342 | 88 | 235 | 2.0 | 3.0 | 0.00 | 0.00 | 0.00 | 49 | 1015.9 |
| 20260901235841 | 88 | 239 | 2.0 | 4.0 | 0.00 | 0.00 | 0.00 | 49 | 1015.9 |
| 20260901235341 | 88 | 219 | 1.0 | 3.0 | 0.00 | 0.00 | 0.00 | 49 | 1015.9 |
| 20260901234841 | 88 | 249 | 3.0 | 4.0 | 0.00 | 0.00 | 0.00 | 48 | 1015.9 |
| 20260901234341 | 89 | 205 | 3.0 | 5.0 | 0.00 | 0.00 | 0.00 | 47 | 1015.9 |
| 20260901233841 | 89 | 214 | 4.0 | 6.0 | 0.00 | 0.00 | 0.00 | 47 | 1016.0 |
| 20260901233340 | 89 | 226 | 4.0 | 5.0 | 0.00 | 0.00 | 0.00 | 47 | 1016.0 |
| 20260901232840 | 89 | 232 | 4.0 | 6.0 | 0.00 | 0.00 | 0.00 | 47 | 1016.0 |
| 20260901232340 | 90 | 219 | 3.0 | 6.0 | 0.00 | 0.00 | 0.00 | 46 | 1016.0 |
| 20260901231840 | 90 | 246 | 4.0 | 6.0 | 0.00 | 0.00 | 0.00 | 46 | 1016.0 |
| 20260901231339 | 90 | 219 | 3.0 | 5.0 | 0.00 | 0.00 | 0.00 | 46 | 1016.0 |
| 20260901230839 | 90 | 228 | 3.0 | 6.0 | 0.00 | 0.00 | 0.00 | 45 | 1016.0 |
| 20260901230339 | 90 | 236 | 4.0 | 9.0 | 0.00 | 0.00 | 0.00 | 45 | 1016.0 |
| 20260901225839 | 91 | 222 | 3.0 | 7.0 | 0.00 | 0.00 | 0.00 | 46 | 1016.1 |
| 20260901225339 | 91 | 252 | 2.0 | 4.0 | 0.00 | 0.00 | 0.00 | 46 | 1016.0 |
| 20260901224838 | 91 | 228 | 3.0 | 6.0 | 0.00 | 0.00 | 0.00 | 44 | 1016.0 |
| 20260901224338 | 91 | 249 | 2.0 | 6.0 | 0.00 | 0.00 | 0.00 | 44 | 1016.0 |
| 20260901223837 | 91 | 222 | 4.0 | 9.0 | 0.00 | 0.00 | 0.00 | 43 | 1016.0 |
| 20260901223336 | 92 | 219 | 5.0 | 8.0 | 0.00 | 0.00 | 0.00 | 43 | 1015.9 |
| 20260901222832 | 92 | 248 | 5.0 | 10.0 | 0.00 | 0.00 | 0.00 | 42 | 1016.0 |
| 20260901222332 | 92 | 221 | 5.0 | 7.0 | 0.00 | 0.00 | 0.00 | 41 | 1016.0 |